Time;durP1;ratioP1;P1;durP2;ratioP2;P2;SDS_P1;SDS_P2;PMS_P1;PMS_P2;Temp;Humidity;BMP_temperature;BMP_pressure;BME280_temperature;BME280_humidity;BME280_pressure;Samples;Min_cycle;Max_cycle;Signal;HPM_P1;HPM_P2
2022/04/27 00:01:50;;;;;;;1.03;1.03;;;9.20;99.90;8.50;98540.00;;;;5114196;28;20236;-75
2022/04/27 00:04:17;;;;;;;1.13;1.13;;;9.10;99.90;8.30;98544.00;;;;5114266;28;20213;-75
2022/04/27 00:06:44;;;;;;;1.53;1.43;;;9.00;99.90;8.50;98539.00;;;;5114043;28;20201;-75
2022/04/27 00:09:13;;;;;;;2.07;1.97;;;9.10;99.90;8.50;98534.00;;;;5114109;28;20202;-75
2022/04/27 00:11:40;;;;;;;2.37;2.27;;;9.20;99.90;8.50;98543.00;;;;5114036;28;20272;-76
2022/04/27 00:14:09;;;;;;;1.30;1.30;;;9.10;99.90;8.50;98529.00;;;;5114085;28;20222;-74
2022/04/27 00:16:35;;;;;;;1.70;1.60;;;9.20;99.90;8.70;98536.00;;;;5114550;28;20691;-76
2022/04/27 00:19:02;;;;;;;2.30;2.20;;;9.30;99.90;8.70;98530.00;;;;5095806;28;20201;-75
2022/04/27 00:21:32;;;;;;;2.50;2.30;;;9.40;99.90;8.50;98530.00;;;;5113747;28;20673;-77
2022/04/27 00:23:58;;;;;;;1.93;1.83;;;9.30;99.90;8.60;98529.00;;;;5113840;28;20250;-75
2022/04/27 00:26:25;;;;;;;3.40;2.70;;;9.20;99.90;8.60;98526.00;;;;5113657;28;20229;-76
2022/04/27 00:28:51;;;;;;;1.70;1.70;;;9.30;99.90;8.60;98515.00;;;;5113754;28;20212;-75
2022/04/27 00:31:17;;;;;;;1.97;1.83;;;9.30;99.90;8.80;98523.00;;;;5113622;28;20321;-75
2022/04/27 00:33:45;;;;;;;2.40;2.30;;;9.30;99.90;8.70;98526.00;;;;5113369;28;20322;-74
2022/04/27 00:36:11;;;;;;;2.43;2.23;;;9.30;99.90;8.50;98524.00;;;;5113481;28;20225;-74
2022/04/27 00:38:39;;;;;;;1.97;1.87;;;9.30;99.90;8.50;98520.00;;;;5095567;28;20580;-75
2022/04/27 00:41:05;;;;;;;1.90;1.77;;;9.20;99.90;8.60;98525.00;;;;5113391;28;20305;-75
2022/04/27 00:43:40;;;;;;;1.93;1.83;;;9.30;99.90;8.50;98517.00;;;;5114713;28;20205;-75
2022/04/27 00:46:10;;;;;;;1.00;1.00;;;9.30;99.90;8.40;98521.00;;;;5116996;28;20288;-75
2022/04/27 00:48:40;;;;;;;4.17;3.30;;;9.10;99.90;8.50;98528.00;;;;5117009;28;20206;-75
2022/04/27 00:51:10;;;;;;;2.00;1.90;;;9.20;99.90;8.60;98536.00;;;;5116898;28;20198;-76
2022/04/27 00:53:37;;;;;;;1.87;1.77;;;9.20;99.90;8.60;98540.00;;;;5116778;28;20218;-75
2022/04/27 00:56:05;;;;;;;2.77;2.07;;;9.30;99.90;8.80;98541.00;;;;5116883;28;20652;-75
2022/04/27 00:58:31;;;;;;;1.93;1.83;;;9.30;99.90;8.90;98545.00;;;;5098826;28;20213;-74
2022/04/27 01:01:00;;;;;;;6.67;2.97;;;9.40;99.90;9.00;98536.00;;;;5116622;28;20218;-74
2022/04/27 01:03:27;;;;;;;3.33;2.40;;;9.50;99.90;9.00;98554.00;;;;5116965;28;20198;-75
2022/04/27 01:05:56;;;;;;;2.20;2.10;;;9.50;99.90;9.00;98555.00;;;;5116794;28;20267;-76
2022/04/27 01:08:23;;;;;;;1.60;1.53;;;9.50;99.90;9.00;98553.00;;;;5116859;28;20248;-75
2022/04/27 01:10:53;;;;;;;4.80;2.63;;;9.60;99.90;8.90;98567.00;;;;5116683;28;20203;-74
2022/04/27 01:13:20;;;;;;;2.23;2.00;;;9.60;99.90;9.00;98557.00;;;;5116361;28;20286;-74
2022/04/27 01:15:47;;;;;;;2.30;2.10;;;9.60;99.90;8.90;98564.00;;;;5116591;28;20194;-74
2022/04/27 01:18:16;;;;;;;2.90;2.40;;;9.60;99.90;9.00;98564.00;;;;5116534;28;20250;-75
2022/04/27 01:20:44;;;;;;;3.97;2.93;;;9.60;99.90;8.90;98560.00;;;;5116475;28;20229;-74
2022/04/27 01:23:12;;;;;;;2.30;2.20;;;9.60;99.90;8.90;98549.00;;;;5098526;28;20205;-75
2022/04/27 01:25:52;;;;;;;2.60;2.40;;;9.60;99.90;9.00;98570.00;;;;5116341;28;20226;-75
2022/04/27 01:28:24;;;;;;;1.57;1.47;;;9.50;99.90;8.80;98566.00;;;;5116590;28;20283;-74
2022/04/27 01:30:59;;;;;;;2.10;2.00;;;9.60;99.90;9.00;98563.00;;;;5116498;28;20756;-75
2022/04/27 01:33:26;;;;;;;2.13;2.00;;;9.60;99.90;9.00;98561.00;;;;5116103;28;20236;-75
2022/04/27 01:35:54;;;;;;;1.63;1.53;;;9.60;99.90;9.10;98572.00;;;;5116262;28;20331;-75
2022/04/27 01:38:21;;;;;;;1.43;1.43;;;9.60;99.90;9.00;98556.00;;;;5116197;28;20222;-74
2022/04/27 01:40:52;;;;;;;4.47;4.03;;;9.60;99.90;9.00;98518.00;;;;5116089;28;20259;-75
2022/04/27 01:43:19;;;;;;;3.53;3.30;;;9.60;99.90;9.20;98558.00;;;;5116216;28;20197;-75
2022/04/27 01:45:45;;;;;;;2.03;1.93;;;9.70;99.90;9.20;98562.00;;;;5116210;28;20209;-75
2022/04/27 01:48:15;;;;;;;1.90;1.80;;;9.70;99.90;9.00;98564.00;;;;5116031;28;20209;-75
2022/04/27 01:50:44;;;;;;;1.93;1.83;;;9.60;99.60;8.90;98546.00;;;;5116070;28;20221;-75
2022/04/27 01:55:57;;;;;;;3.23;2.83;;;9.60;99.90;9.00;98567.00;;;;5115158;28;20202;-75
2022/04/27 01:58:24;;;;;;;2.67;2.50;;;9.60;99.90;9.10;98566.00;;;;5115954;28;20204;-75
2022/04/27 02:00:51;;;;;;;3.23;2.93;;;9.70;99.90;9.00;98566.00;;;;5115859;28;20221;-75
2022/04/27 02:03:20;;;;;;;1.80;1.77;;;9.60;99.90;9.00;98570.00;;;;5097827;28;20212;-74
2022/04/27 02:05:47;;;;;;;4.80;2.93;;;9.60;99.90;9.00;98534.00;;;;5115706;28;20736;-75
2022/04/27 02:08:15;;;;;;;2.67;2.47;;;9.70;99.90;9.00;98558.00;;;;5115683;28;20194;-75
2022/04/27 02:10:44;;;;;;;1.83;1.73;;;9.60;99.90;9.10;98554.00;;;;5115767;28;20280;-74
2022/04/27 02:13:14;;;;;;;3.70;3.40;;;9.70;99.90;9.00;98571.00;;;;5097511;28;20272;-75
2022/04/27 02:15:40;;;;;;;2.93;2.53;;;9.60;99.90;9.00;98578.00;;;;5115628;28;20213;-74
2022/04/27 02:18:08;;;;;;;2.20;1.97;;;9.60;99.90;9.10;98576.00;;;;5115551;28;20194;-77
2022/04/27 02:20:34;;;;;;;1.53;1.47;;;9.60;99.90;9.10;98573.00;;;;5115496;28;20674;-74
2022/04/27 02:23:01;;;;;;;2.47;2.33;;;9.70;99.90;9.10;98578.00;;;;5115639;28;20225;-73
2022/04/27 02:25:29;;;;;;;2.57;2.37;;;9.70;99.90;9.10;98575.00;;;;5115436;28;20633;-76
2022/04/27 02:27:58;;;;;;;3.27;2.77;;;9.70;99.90;9.00;98570.00;;;;5116145;28;20218;-74
2022/04/27 02:30:24;;;;;;;2.50;2.33;;;9.70;99.90;9.10;98581.00;;;;5116408;28;20190;-74
2022/04/27 02:32:51;;;;;;;1.17;1.17;;;9.70;99.90;9.00;98586.00;;;;5115117;28;20229;-74
2022/04/27 02:35:18;;;;;;;1.57;1.47;;;9.60;99.90;9.00;98584.00;;;;5115338;28;20206;-73
2022/04/27 02:37:47;;;;;;;6.53;2.90;;;9.60;99.90;9.10;98583.00;;;;5114374;28;20205;-74
2022/04/27 02:40:14;;;;;;;3.90;1.83;;;9.70;99.90;9.00;98569.00;;;;5115290;28;20209;-74
2022/04/27 02:42:41;;;;;;;1.87;1.77;;;9.70;99.90;9.00;98592.00;;;;5115205;28;20194;-75
2022/04/27 02:45:09;;;;;;;2.30;1.73;;;9.70;99.90;9.00;98589.00;;;;5115355;28;20217;-75
2022/04/27 02:47:35;;;;;;;3.03;2.83;;;9.70;99.90;9.00;98581.00;;;;5115149;28;20237;-75
2022/04/27 02:52:48;;;;;;;1.83;1.77;;;9.60;99.90;9.10;98595.00;;;;5114937;28;20228;-74
2022/04/27 02:55:17;;;;;;;1.70;1.60;;;9.60;99.90;9.10;98593.00;;;;5115169;28;20208;-74
2022/04/27 02:57:44;;;;;;;1.63;1.53;;;9.70;99.90;9.10;98591.00;;;;5115089;28;20284;-74
2022/04/27 03:00:12;;;;;;;2.87;2.53;;;9.70;99.90;9.00;98592.00;;;;5114899;28;20252;-74
2022/04/27 03:02:40;;;;;;;1.13;1.13;;;9.70;99.30;8.90;98586.00;;;;5097259;28;20667;-74
2022/04/27 03:05:08;;;;;;;2.13;2.03;;;9.60;99.00;9.00;98593.00;;;;5114885;28;20190;-74
2022/04/27 03:07:34;;;;;;;2.10;2.00;;;9.60;99.40;8.90;98598.00;;;;5113540;28;20272;-74
2022/04/27 03:10:05;;;;;;;2.03;1.93;;;9.60;99.90;9.00;98598.00;;;;5114773;28;20802;-75
2022/04/27 03:12:31;;;;;;;1.57;1.50;;;9.60;99.90;9.10;98591.00;;;;5114646;28;20217;-75
2022/04/27 03:14:58;;;;;;;1.47;1.37;;;9.60;99.90;9.00;98598.00;;;;5117544;28;20257;-75
2022/04/27 03:17:25;;;;;;;2.30;2.20;;;9.70;99.90;9.00;98591.00;;;;5105653;28;20202;-76
2022/04/27 03:19:51;;;;;;;1.20;1.20;;;9.70;99.90;9.10;98594.00;;;;5117541;28;20236;-76
2022/04/27 03:22:18;;;;;;;1.70;1.60;;;9.70;99.90;9.20;98592.00;;;;5116536;28;20303;-74
2022/04/27 03:24:44;;;;;;;1.80;1.47;;;9.70;99.90;9.10;98594.00;;;;5116165;28;20198;-75
2022/04/27 03:27:13;;;;;;;0.93;0.93;;;9.70;99.90;9.00;98599.00;;;;5115921;28;20866;-75
2022/04/27 03:29:42;;;;;;;1.57;1.50;;;9.60;99.90;9.00;98595.00;;;;5115783;28;20221;-75
2022/04/27 03:32:10;;;;;;;1.27;1.27;;;9.70;99.90;9.00;98599.00;;;;5115042;28;20609;-75
2022/04/27 03:34:39;;;;;;;3.20;1.83;;;9.60;99.90;9.00;98607.00;;;;5114371;28;20197;-75
2022/04/27 03:37:07;;;;;;;1.40;1.37;;;9.60;99.90;9.00;98605.00;;;;5114672;28;20197;-75
2022/04/27 03:39:36;;;;;;;1.50;1.47;;;9.60;99.90;8.90;98600.00;;;;5114358;28;20222;-75
2022/04/27 03:42:03;;;;;;;1.67;1.60;;;9.60;99.90;8.90;98602.00;;;;5114258;28;20217;-75
2022/04/27 03:44:30;;;;;;;1.30;1.30;;;9.60;99.90;8.90;98606.00;;;;5114544;28;20198;-75
2022/04/27 03:46:56;;;;;;;2.93;1.90;;;9.50;99.90;8.80;98602.00;;;;5114283;28;20245;-74
2022/04/27 03:49:23;;;;;;;1.43;1.37;;;9.50;99.90;8.80;98603.00;;;;5096376;28;20640;-74
2022/04/27 03:51:52;;;;;;;2.07;1.77;;;9.50;99.90;8.90;98599.00;;;;5114176;28;20210;-75
2022/04/27 03:54:21;;;;;;;1.00;1.00;;;9.60;99.90;8.90;98615.00;;;;5113938;28;20255;-76
2022/04/27 03:56:47;;;;;;;1.70;1.50;;;9.60;99.90;8.90;98620.00;;;;5114143;28;20519;-75
2022/04/27 03:59:15;;;;;;;1.03;1.03;;;9.50;99.90;9.00;98612.00;;;;5114100;28;20217;-74
2022/04/27 04:01:44;;;;;;;1.17;1.13;;;9.60;99.90;8.80;98618.00;;;;5114320;28;20221;-75
2022/04/27 04:04:10;;;;;;;1.07;1.07;;;9.60;99.90;8.90;98619.00;;;;5114006;28;20204;-75
2022/04/27 04:06:39;;;;;;;1.60;1.57;;;9.60;99.90;9.00;98608.00;;;;5116862;28;20225;-75
2022/04/27 04:09:05;;;;;;;1.10;1.10;;;9.60;99.90;8.90;98626.00;;;;5116701;28;20202;-75
2022/04/27 04:11:34;;;;;;;1.07;1.07;;;9.60;99.90;9.00;98625.00;;;;5116076;28;20197;-75
2022/04/27 04:14:01;;;;;;;0.63;0.63;;;9.60;99.90;9.10;98627.00;;;;5116366;28;20268;-75
2022/04/27 04:16:27;;;;;;;1.00;0.90;;;9.60;99.90;9.00;98629.00;;;;5114088;28;20194;-75
2022/04/27 04:18:56;;;;;;;2.17;2.00;;;9.70;99.90;9.10;98631.00;;;;5097700;28;20218;-75
2022/04/27 04:21:26;;;;;;;0.90;0.90;;;9.70;99.90;9.10;98631.00;;;;5117670;28;20614;-75
2022/04/27 04:23:53;;;;;;;5.60;1.70;;;9.70;99.90;9.10;98632.00;;;;5117854;28;20247;-75
2022/04/27 04:29:04;;;;;;;1.80;1.70;;;9.70;99.90;9.00;98641.00;;;;5116581;28;20233;-74
2022/04/27 04:31:30;;;;;;;1.73;1.63;;;9.70;99.90;9.00;98643.00;;;;5099555;28;20201;-75
2022/04/27 04:33:57;;;;;;;1.10;1.10;;;9.70;99.90;9.00;98651.00;;;;5117281;28;20226;-75
2022/04/27 04:36:23;;;;;;;1.40;1.20;;;9.60;99.90;9.10;98645.00;;;;5117407;28;20809;-75
2022/04/27 04:38:50;;;;;;;0.87;0.80;;;9.70;99.90;9.10;98654.00;;;;5117139;28;20255;-75
2022/04/27 04:41:18;;;;;;;1.47;1.37;;;9.70;99.90;9.10;98666.00;;;;5117237;28;20285;-75
2022/04/27 04:43:46;;;;;;;0.93;0.93;;;9.70;99.90;9.10;98666.00;;;;5117161;28;20197;-75
2022/04/27 04:46:13;;;;;;;3.83;2.47;;;9.70;99.90;9.10;98660.00;;;;5099039;28;20316;-75
2022/04/27 04:48:39;;;;;;;1.93;1.83;;;9.80;99.90;9.20;98676.00;;;;5117208;28;20228;-75
2022/04/27 04:51:06;;;;;;;1.27;1.27;;;9.70;99.90;9.20;98678.00;;;;5117291;28;20198;-75
2022/04/27 04:53:32;;;;;;;1.33;1.23;;;9.80;99.90;9.30;98683.00;;;;5117065;28;20237;-75
2022/04/27 04:55:59;;;;;;;0.93;0.93;;;9.80;99.90;9.20;98684.00;;;;5117040;28;20213;-75
2022/04/27 04:58:27;;;;;;;1.33;1.33;;;9.80;99.90;9.20;98695.00;;;;5117116;28;20228;-75
2022/04/27 05:00:53;;;;;;;1.23;1.03;;;9.80;99.90;9.20;98694.00;;;;5116917;28;20262;-75
2022/04/27 05:03:20;;;;;;;1.43;1.37;;;9.80;99.90;9.20;98692.00;;;;5116875;28;20217;-75
2022/04/27 05:05:46;;;;;;;1.07;1.07;;;9.80;99.10;9.10;98687.00;;;;5116727;28;20228;-74
2022/04/27 05:08:13;;;;;;;1.33;1.33;;;9.70;99.70;9.10;98692.00;;;;5117055;28;20783;-75
2022/04/27 05:10:39;;;;;;;1.67;1.57;;;9.70;99.90;9.10;98699.00;;;;5116923;28;20687;-74
2022/04/27 05:13:06;;;;;;;1.13;1.13;;;9.70;99.90;9.00;98695.00;;;;5116620;28;20213;-75
2022/04/27 05:15:35;;;;;;;1.13;1.13;;;9.70;99.90;9.10;98696.00;;;;5116691;28;20265;-75
2022/04/27 05:18:02;;;;;;;1.77;1.67;;;9.70;99.90;9.10;98702.00;;;;5098550;28;20193;-75
2022/04/27 05:20:28;;;;;;;1.30;1.27;;;9.70;99.90;9.20;98702.00;;;;5116777;28;20216;-75
2022/04/27 05:22:55;;;;;;;1.63;1.53;;;9.80;99.40;9.20;98701.00;;;;5116709;28;20201;-75
2022/04/27 05:25:23;;;;;;;0.70;0.70;;;9.80;99.30;9.20;98711.00;;;;5117280;28;20281;-74
2022/04/27 05:27:50;;;;;;;1.43;1.33;;;9.80;99.30;9.00;98706.00;;;;5116575;28;20224;-75
2022/04/27 05:33:01;;;;;;;1.43;1.33;;;9.70;99.10;9.10;98719.00;;;;5116229;28;20229;-75
2022/04/27 05:35:28;;;;;;;1.60;1.50;;;9.80;98.80;9.10;98717.00;;;;5116463;28;20194;-75
2022/04/27 05:37:55;;;;;;;1.77;1.67;;;9.70;99.00;9.30;98724.00;;;;5098309;28;20203;-75
2022/04/27 05:40:21;;;;;;;1.20;1.20;;;9.80;99.60;9.20;98720.00;;;;5116164;28;20722;-75
2022/04/27 05:42:50;;;;;;;2.47;2.27;;;9.80;99.40;9.20;98723.00;;;;5116288;28;20276;-75
2022/04/27 05:45:17;;;;;;;1.17;1.17;;;9.80;99.70;9.30;98721.00;;;;5116212;28;20206;-75
2022/04/27 05:47:44;;;;;;;2.20;1.70;;;9.90;99.80;9.30;98727.00;;;;5098330;28;20202;-75
2022/04/27 05:50:11;;;;;;;1.30;1.27;;;9.90;99.30;9.40;98731.00;;;;5116233;28;20510;-75
2022/04/27 05:52:52;;;;;;;1.27;1.27;;;9.90;99.10;9.40;98733.00;;;;5115902;28;20260;-75
2022/04/27 05:55:19;;;;;;;1.97;1.87;;;10.00;99.90;9.60;98734.00;;;;5116042;28;20194;-75
2022/04/27 05:57:48;;;;;;;1.53;1.20;;;10.10;99.00;9.60;98741.00;;;;5116162;28;20194;-75
2022/04/27 06:00:19;;;;;;;1.80;1.70;;;10.20;98.10;9.60;98747.00;;;;5116021;28;20206;-75
2022/04/27 06:02:46;;;;;;;1.23;1.23;;;10.20;98.20;9.70;98751.00;;;;5116045;28;20178;-75
2022/04/27 06:05:14;;;;;;;1.30;1.30;;;10.20;98.00;9.70;98752.00;;;;5115889;28;20259;-75
2022/04/27 06:07:40;;;;;;;1.43;1.43;;;10.20;97.80;9.80;98749.00;;;;5116113;28;20209;-75
2022/04/27 06:10:10;;;;;;;1.63;1.30;;;10.30;98.30;9.90;98748.00;;;;5116233;28;20193;-75
2022/04/27 06:12:46;;;;;;;1.73;1.63;;;10.30;97.70;9.90;98748.00;;;;5116036;28;20259;-74
2022/04/27 06:15:15;;;;;;;1.20;1.20;;;10.40;97.40;9.90;98731.00;;;;5115832;28;20224;-73
2022/04/27 06:17:42;;;;;;;1.90;1.50;;;10.50;96.50;9.90;98752.00;;;;5115885;28;20204;-74
2022/04/27 06:20:11;;;;;;;1.70;1.60;;;10.50;96.90;10.00;98760.00;;;;5097648;28;20218;-73
2022/04/27 06:22:38;;;;;;;1.47;1.40;;;10.50;96.90;10.10;98762.00;;;;5097869;28;20240;-74
2022/04/27 06:25:06;;;;;;;1.13;1.13;;;10.60;96.80;10.10;98765.00;;;;5115685;28;20241;-75
2022/04/27 06:27:33;;;;;;;1.57;1.47;;;10.60;96.70;10.00;98760.00;;;;5115648;28;20183;-74
2022/04/27 06:30:00;;;;;;;0.97;0.93;;;10.60;95.50;10.00;98763.00;;;;5115631;28;20281;-74
2022/04/27 06:32:31;;;;;;;1.90;1.80;;;10.60;95.60;10.00;98767.00;;;;5115521;28;20214;-74
2022/04/27 06:34:58;;;;;;;0.90;0.90;;;10.60;95.50;10.00;98772.00;;;;5115620;28;20662;-74
2022/04/27 06:37:25;;;;;;;1.43;1.33;;;10.50;95.50;10.00;98775.00;;;;5115356;28;20225;-74
2022/04/27 06:39:52;;;;;;;1.47;1.37;;;10.60;95.90;10.10;98770.00;;;;5097464;28;20354;-74
2022/04/27 06:42:21;;;;;;;1.27;1.20;;;10.60;95.70;10.20;98765.00;;;;5115130;28;20231;-74
2022/04/27 06:44:48;;;;;;;1.67;1.57;;;10.70;95.00;10.30;98765.00;;;;5115213;28;20221;-76
2022/04/27 06:47:15;;;;;;;1.43;1.17;;;10.70;94.80;10.40;98777.00;;;;5115435;28;20210;-78
2022/04/27 06:49:42;;;;;;;1.73;1.63;;;10.80;93.90;10.40;98774.00;;;;5115188;28;20205;-78
2022/04/27 06:52:08;;;;;;;1.80;1.70;;;10.90;93.70;10.30;98782.00;;;;5114993;28;20621;-74
2022/04/27 06:54:35;;;;;;;1.90;1.60;;;10.90;94.10;10.50;98786.00;;;;5114913;28;20374;-73
2022/04/27 06:57:05;;;;;;;1.20;1.20;;;11.00;94.40;10.70;98792.00;;;;5115167;28;20279;-74
2022/04/27 06:59:32;;;;;;;2.07;1.70;;;11.10;94.80;10.60;98793.00;;;;5115596;28;20216;-74
2022/04/27 07:01:58;;;;;;;1.17;1.17;;;11.20;93.90;10.70;98798.00;;;;5115732;28;20208;-76
2022/04/27 07:04:26;;;;;;;1.27;1.27;;;11.20;94.50;11.00;98799.00;;;;5115158;28;20209;-76
2022/04/27 07:06:54;;;;;;;3.70;2.33;;;11.40;95.10;11.00;98800.00;;;;5097088;28;20526;-76
2022/04/27 07:09:23;;;;;;;1.67;1.57;;;11.50;94.10;11.30;98803.00;;;;5114848;28;20275;-76
2022/04/27 07:11:51;;;;;;;1.40;1.37;;;11.60;92.90;11.40;98814.00;;;;5097236;28;20642;-75
2022/04/27 07:14:19;;;;;;;1.00;1.00;;;11.70;92.30;11.50;98797.00;;;;5114805;28;20226;-76
2022/04/27 07:16:46;;;;;;;1.70;1.07;;;11.80;90.50;11.40;98820.00;;;;5114712;28;20278;-76
2022/04/27 07:19:13;;;;;;;2.57;1.33;;;11.90;89.90;11.50;98799.00;;;;5114786;28;20190;-77
2022/04/27 07:21:40;;;;;;;1.23;1.23;;;11.90;90.20;11.70;98817.00;;;;5114912;28;20273;-76
2022/04/27 07:24:07;;;;;;;0.77;0.77;;;12.10;90.60;11.80;98817.00;;;;5115375;28;20217;-74
2022/04/27 07:26:35;;;;;;;0.60;0.60;;;12.20;89.80;11.80;98823.00;;;;5115066;28;20197;-74
2022/04/27 07:29:02;;;;;;;1.03;1.03;;;12.30;88.60;11.90;98818.00;;;;5114662;28;20194;-76
2022/04/27 07:31:32;;;;;;;1.63;1.53;;;12.30;88.40;12.00;98830.00;;;;5114793;28;20235;-76
2022/04/27 07:33:58;;;;;;;1.47;1.43;;;12.30;87.70;11.90;98832.00;;;;5114467;28;20242;-76
2022/04/27 07:36:27;;;;;;;1.03;1.03;;;12.40;86.40;11.70;98836.00;;;;5114446;28;20600;-75
2022/04/27 07:38:54;;;;;;;1.13;1.13;;;12.30;86.50;11.70;98840.00;;;;5114571;28;20287;-76
2022/04/27 07:41:20;;;;;;;1.67;1.53;;;12.20;86.80;11.80;98832.00;;;;5114429;28;20239;-77
2022/04/27 07:43:47;;;;;;;1.43;1.33;;;12.30;87.90;11.90;98836.00;;;;5114257;28;20617;-74
2022/04/27 07:46:14;;;;;;;0.80;0.80;;;12.40;88.50;11.80;98835.00;;;;5114226;28;20250;-76
2022/04/27 07:48:41;;;;;;;0.77;0.77;;;12.40;86.00;12.00;98835.00;;;;5114222;28;20281;-77
2022/04/27 07:51:10;;;;;;;1.40;1.17;;;12.40;87.10;12.20;98840.00;;;;5114065;28;20218;-76
2022/04/27 07:53:39;;;;;;;1.17;1.17;;;12.60;86.50;12.30;98834.00;;;;5113331;28;20249;-78
2022/04/27 07:56:06;;;;;;;1.40;1.33;;;12.70;85.60;12.50;98841.00;;;;5114112;28;20216;-77
2022/04/27 07:58:35;;;;;;;0.57;0.57;;;12.80;85.00;12.60;98837.00;;;;5114189;28;20211;-78
2022/04/27 08:01:02;;;;;;;1.03;1.03;;;13.00;83.30;12.60;98845.00;;;;5114128;28;20209;-79
2022/04/27 08:03:29;;;;;;;1.20;1.20;;;13.00;82.90;12.60;98834.00;;;;5114265;28;20530;-74
2022/04/27 08:05:56;;;;;;;0.70;0.70;;;13.00;81.10;12.50;98852.00;;;;5114012;28;20198;-75
2022/04/27 08:08:25;;;;;;;0.93;0.93;;;13.00;80.40;12.60;98861.00;;;;5113919;28;20705;-76
2022/04/27 08:10:51;;;;;;;3.57;1.63;;;13.00;80.70;12.70;98850.00;;;;5095870;28;20653;-76
2022/04/27 08:13:18;;;;;;;0.97;0.97;;;13.10;80.40;12.80;98852.00;;;;5113805;28;20254;-76
2022/04/27 08:15:47;;;;;;;0.93;0.93;;;13.20;79.40;12.80;98856.00;;;;5113960;28;20198;-76
2022/04/27 08:18:13;;;;;;;0.53;0.53;;;13.20;75.60;12.60;98869.00;;;;5096065;28;20669;-76
2022/04/27 08:23:32;;;;;;;1.80;1.70;;;13.20;77.00;12.90;98867.00;;;;5114109;28;20198;-78
2022/04/27 08:26:01;;;;;;;1.00;1.00;;;13.30;76.80;13.00;98876.00;;;;5113461;28;20655;-74
2022/04/27 08:28:30;;;;;;;0.80;0.80;;;13.40;75.90;13.10;98872.00;;;;5095212;28;20297;-73
2022/04/27 08:30:58;;;;;;;0.80;0.80;;;13.50;75.10;13.20;98872.00;;;;5113332;28;20366;-73
2022/04/27 08:33:24;;;;;;;0.83;0.83;;;13.60;73.00;13.20;98875.00;;;;5113258;28;20214;-74
2022/04/27 08:35:54;;;;;;;0.90;0.90;;;13.70;73.00;13.30;98874.00;;;;5113375;28;20213;-74
2022/04/27 08:38:22;;;;;;;1.17;1.17;;;13.70;74.60;13.40;98873.00;;;;5113246;28;20214;-73
2022/04/27 08:40:50;;;;;;;1.53;1.30;;;13.80;74.10;13.20;98871.00;;;;5113194;28;20701;-74
2022/04/27 08:43:17;;;;;;;0.80;0.80;;;13.70;71.60;13.20;98885.00;;;;5095237;28;20214;-73
2022/04/27 08:45:45;;;;;;;0.50;0.50;;;13.80;72.00;13.30;98879.00;;;;5113143;28;20198;-73
2022/04/27 08:48:14;;;;;;;1.40;1.30;;;13.70;73.50;13.20;98884.00;;;;5113160;28;20205;-74
2022/04/27 08:50:41;;;;;;;1.47;1.20;;;13.70;72.80;13.10;98880.00;;;;5113109;28;20193;-73
2022/04/27 08:53:08;;;;;;;0.70;0.70;;;13.60;72.90;13.10;98890.00;;;;5112961;28;20222;-73
2022/04/27 08:55:40;;;;;;;1.23;1.23;;;13.60;73.20;13.10;98879.00;;;;5113092;28;20202;-73
2022/04/27 08:58:13;;;;;;;0.70;0.70;;;13.60;73.00;13.10;98884.00;;;;5094982;28;20241;-72
2022/04/27 09:00:41;;;;;;;0.53;0.53;;;13.60;73.30;13.40;98876.00;;;;5095369;28;20665;-74
2022/04/27 09:03:28;;;;;;;0.93;0.93;;;13.70;73.50;13.60;98881.00;;;;5113481;28;20494;-73
2022/04/27 09:05:58;;;;;;;1.03;1.03;;;13.90;71.80;13.50;98884.00;;;;5117553;28;20194;-74
2022/04/27 09:08:27;;;;;;;0.70;0.70;;;13.90;70.90;13.80;98860.00;;;;5116608;28;20198;-73
2022/04/27 09:11:20;;;;;;;0.87;0.87;;;14.10;71.00;13.60;98887.00;;;;5116359;28;20549;-73
2022/04/27 09:13:50;;;;;;;0.90;0.90;;;14.20;67.50;14.00;98886.00;;;;5116342;28;20225;-74
2022/04/27 09:16:18;;;;;;;0.80;0.80;;;14.30;68.70;14.30;98889.00;;;;5116815;28;20316;-74
2022/04/27 09:22:02;;;;;;;1.00;1.00;;;14.80;67.50;14.80;98895.00;;;;5116202;28;20712;-75
2022/04/27 09:24:47;;;;;;;0.70;0.70;;;15.00;65.00;14.90;98887.00;;;;5116196;28;20210;-75
2022/04/27 09:27:19;;;;;;;1.00;1.00;;;15.10;62.80;15.00;98892.00;;;;5116277;28;20222;-76
2022/04/27 09:29:57;;;;;;;0.90;0.90;;;15.10;57.20;14.50;98890.00;;;;5098105;28;20194;-75
2022/04/27 09:32:25;;;;;;;0.90;0.90;;;15.10;57.90;14.50;98887.00;;;;5115901;28;20527;-74
2022/04/27 09:34:55;;;;;;;0.97;0.97;;;15.00;58.70;14.70;98893.00;;;;5115946;28;20233;-76
2022/04/27 09:37:24;;;;;;;0.70;0.70;;;15.10;60.10;14.90;98890.00;;;;5115780;28;20221;-73
2022/04/27 09:40:06;;;;;;;0.50;0.50;;;15.30;58.80;15.10;98893.00;;;;5115958;28;20212;-74
2022/04/27 09:42:34;;;;;;;0.90;0.90;;;15.50;57.30;15.30;98884.00;;;;5115823;28;20281;-74
2022/04/27 09:45:17;;;;;;;1.00;1.00;;;15.70;58.30;15.70;98885.00;;;;5097931;28;20682;-75
2022/04/27 09:47:48;;;;;;;2.40;1.77;;;15.80;57.90;15.80;98891.00;;;;5114893;28;20240;-74
2022/04/27 09:50:15;;;;;;;0.93;0.93;;;16.00;57.60;15.90;98897.00;;;;5116099;28;20281;-75
2022/04/27 09:52:43;;;;;;;0.80;0.80;;;16.20;56.10;16.10;98891.00;;;;5115574;28;20344;-75
2022/04/27 09:55:13;;;;;;;0.70;0.70;;;16.30;56.20;16.20;98897.00;;;;5097590;28;20218;-77
2022/04/27 09:57:41;;;;;;;1.53;1.43;;;16.50;54.90;16.30;98898.00;;;;5115585;28;20190;-74
2022/04/27 10:00:12;;;;;;;0.67;0.67;;;16.60;54.30;16.30;98899.00;;;;5097525;28;20257;-73
2022/04/27 10:02:43;;;;;;;1.03;1.03;;;16.70;53.50;16.30;98882.00;;;;5115574;28;20270;-73
2022/04/27 10:05:10;;;;;;;1.00;1.00;;;16.70;51.90;16.50;98902.00;;;;5115354;28;20657;-74
2022/04/27 10:07:37;;;;;;;0.70;0.70;;;16.70;52.00;16.40;98901.00;;;;5115451;28;20198;-74
2022/04/27 10:10:05;;;;;;;1.10;1.10;;;16.80;51.20;16.40;98895.00;;;;5115353;28;20212;-74
2022/04/27 10:12:38;;;;;;;0.77;0.77;;;16.80;51.70;16.40;98901.00;;;;5115450;28;20244;-77
2022/04/27 10:15:07;;;;;;;0.73;0.73;;;16.90;51.80;16.60;98900.00;;;;5097945;28;20210;-76
2022/04/27 10:17:34;;;;;;;0.90;0.90;;;17.00;51.70;16.80;98902.00;;;;5115825;28;20197;-76
2022/04/27 10:20:01;;;;;;;1.07;1.07;;;17.10;50.00;16.70;98899.00;;;;5115549;28;20201;-77
2022/04/27 10:22:33;;;;;;;1.30;1.20;;;17.10;49.80;16.70;98910.00;;;;5114954;28;20317;-75
2022/04/27 10:25:06;;;;;;;1.00;1.00;;;17.10;49.00;16.80;98885.00;;;;5115360;28;20267;-75
2022/04/27 10:27:37;;;;;;;1.03;1.00;;;17.10;50.50;16.90;98903.00;;;;5097142;28;20688;-74
2022/04/27 10:30:08;;;;;;;0.93;0.93;;;;;16.60;98904.00;;;;5115132;28;20252;-76
2022/04/27 10:32:45;;;;;;;0.93;0.93;;;17.10;48.50;16.80;98905.00;;;;5114902;28;20218;-75
2022/04/27 10:35:25;;;;;;;0.60;0.60;;;17.10;50.10;16.90;98905.00;;;;5115037;28;20262;-75
2022/04/27 10:37:54;;;;;;;0.60;0.60;;;17.20;49.00;17.00;98914.00;;;;5114965;28;20660;-75
2022/04/27 10:40:41;;;;;;;1.20;1.20;;;17.30;47.30;16.70;98912.00;;;;5115186;28;20209;-74
2022/04/27 10:43:14;;;;;;;0.67;0.67;;;17.10;47.40;16.50;98917.00;;;;5113734;28;20259;-76
2022/04/27 10:45:45;;;;;;;0.70;0.70;;;16.90;47.10;16.60;98909.00;;;;5097022;28;20224;-77
2022/04/27 10:48:17;;;;;;;1.20;1.20;;;16.90;48.40;16.50;98913.00;;;;5114804;28;20277;-77
2022/04/27 10:50:58;;;;;;;0.90;0.90;;;16.90;47.90;16.50;98895.00;;;;5096597;28;20240;-76
2022/04/27 10:53:26;;;;;;;0.93;0.93;;;16.90;47.50;16.30;98920.00;;;;5114532;28;20221;-75
2022/04/27 10:55:56;;;;;;;0.70;0.70;;;16.80;47.50;16.30;98905.00;;;;5114605;28;20205;-77
2022/04/27 10:58:34;;;;;;;1.30;1.10;;;16.80;48.10;16.40;98908.00;;;;5114683;28;20204;-76
2022/04/27 11:01:30;;;;;;;1.27;1.27;;;16.80;48.90;16.50;98915.00;;;;5114531;28;20301;-74
2022/04/27 11:04:11;;;;;;;1.20;1.10;;;16.90;48.30;16.60;98911.00;;;;5115211;28;20205;-74
2022/04/27 11:07:26;;;;;;;1.07;1.07;;;16.90;48.20;16.90;98902.00;;;;5114478;28;20209;-74
2022/04/27 11:10:21;;;;;;;1.00;1.00;;;17.10;47.70;16.80;98912.00;;;;5096588;28;20355;-73
2022/04/27 11:12:50;;;;;;;1.57;1.47;;;17.20;47.60;17.00;98912.00;;;;5114453;28;20194;-74
2022/04/27 11:15:22;;;;;;;1.13;1.13;;;17.30;45.80;16.80;98915.00;;;;5096432;28;20202;-74
2022/04/27 11:18:00;;;;;;;0.90;0.90;;;17.30;46.30;17.00;98911.00;;;;5114348;28;20237;-74
2022/04/27 11:20:35;;;;;;;1.23;1.17;;;17.40;46.20;17.50;98915.00;;;;5114396;28;20204;-76
2022/04/27 11:23:07;;;;;;;1.07;1.07;;;17.80;47.80;17.80;98907.00;;;;5096377;28;20259;-76
2022/04/27 11:25:35;;;;;;;0.70;0.70;;;18.10;47.50;18.10;98913.00;;;;5114338;28;20289;-75
2022/04/27 11:28:05;;;;;;;0.60;0.60;;;18.40;44.80;18.40;98920.00;;;;5113257;28;20737;-76